sensor_id;sensor_type;location;lat;lon;timestamp;temperature;humidity
24250;DHT22;12379;49.820;8.648;2022-12-29T00:02:16;11.60;99.90
24250;DHT22;12379;49.820;8.648;2022-12-29T00:04:42;11.60;99.90
24250;DHT22;12379;49.820;8.648;2022-12-29T00:07:08;11.60;99.90
24250;DHT22;12379;49.820;8.648;2022-12-29T00:09:34;11.50;99.90
24250;DHT22;12379;49.820;8.648;2022-12-29T00:12:03;11.60;99.90
24250;DHT22;12379;49.820;8.648;2022-12-29T00:14:28;11.50;99.90
24250;DHT22;12379;49.820;8.648;2022-12-29T00:17:13;11.50;99.90
24250;DHT22;12379;49.820;8.648;2022-12-29T00:19:39;11.40;99.90
24250;DHT22;12379;49.820;8.648;2022-12-29T00:22:23;11.30;99.90
24250;DHT22;12379;49.820;8.648;2022-12-29T00:25:09;11.30;99.90
24250;DHT22;12379;49.820;8.648;2022-12-29T00:27:54;11.30;99.90
24250;DHT22;12379;49.820;8.648;2022-12-29T00:30:38;11.10;99.90
24250;DHT22;12379;49.820;8.648;2022-12-29T00:33:26;11.20;99.90
24250;DHT22;12379;49.820;8.648;2022-12-29T00:36:20;11.10;99.90
24250;DHT22;12379;49.820;8.648;2022-12-29T00:38:51;11.00;99.90
24250;DHT22;12379;49.820;8.648;2022-12-29T00:41:43;11.10;99.90
24250;DHT22;12379;49.820;8.648;2022-12-29T00:44:27;11.10;99.90
24250;DHT22;12379;49.820;8.648;2022-12-29T00:46:53;11.10;99.90
24250;DHT22;12379;49.820;8.648;2022-12-29T00:49:19;11.00;99.90
24250;DHT22;12379;49.820;8.648;2022-12-29T00:52:04;11.00;99.90
24250;DHT22;12379;49.820;8.648;2022-12-29T00:54:37;10.90;99.90
24250;DHT22;12379;49.820;8.648;2022-12-29T00:57:09;10.80;99.90
24250;DHT22;12379;49.820;8.648;2022-12-29T00:59:37;10.80;99.90
24250;DHT22;12379;49.820;8.648;2022-12-29T01:02:02;10.80;99.90
24250;DHT22;12379;49.820;8.648;2022-12-29T01:04:28;10.80;99.90
24250;DHT22;12379;49.820;8.648;2022-12-29T01:06:54;10.70;99.90
24250;DHT22;12379;49.820;8.648;2022-12-29T01:09:20;10.80;99.90
24250;DHT22;12379;49.820;8.648;2022-12-29T01:12:05;10.70;99.90
24250;DHT22;12379;49.820;8.648;2022-12-29T01:14:31;10.80;99.90
24250;DHT22;12379;49.820;8.648;2022-12-29T01:16:57;10.70;99.90
24250;DHT22;12379;49.820;8.648;2022-12-29T01:19:23;10.60;99.90
24250;DHT22;12379;49.820;8.648;2022-12-29T01:21:49;10.60;99.90
24250;DHT22;12379;49.820;8.648;2022-12-29T01:24:17;10.50;99.90
24250;DHT22;12379;49.820;8.648;2022-12-29T01:26:43;10.60;99.90
24250;DHT22;12379;49.820;8.648;2022-12-29T01:29:11;10.60;99.90
24250;DHT22;12379;49.820;8.648;2022-12-29T01:31:37;10.60;99.90
24250;DHT22;12379;49.820;8.648;2022-12-29T01:34:03;10.60;99.90
24250;DHT22;12379;49.820;8.648;2022-12-29T01:36:29;10.60;99.90
24250;DHT22;12379;49.820;8.648;2022-12-29T01:38:55;10.80;99.90
24250;DHT22;12379;49.820;8.648;2022-12-29T01:41:21;10.90;99.90
24250;DHT22;12379;49.820;8.648;2022-12-29T01:43:56;11.00;99.90
24250;DHT22;12379;49.820;8.648;2022-12-29T01:46:34;11.10;99.90
24250;DHT22;12379;49.820;8.648;2022-12-29T01:49:26;11.20;99.90
24250;DHT22;12379;49.820;8.648;2022-12-29T01:52:02;11.30;99.90
24250;DHT22;12379;49.820;8.648;2022-12-29T01:54:47;11.30;99.90
24250;DHT22;12379;49.820;8.648;2022-12-29T01:59:50;11.50;99.90
24250;DHT22;12379;49.820;8.648;2022-12-29T02:02:17;11.40;99.90
24250;DHT22;12379;49.820;8.648;2022-12-29T02:04:43;11.40;99.90
24250;DHT22;12379;49.820;8.648;2022-12-29T02:07:19;11.40;99.90
24250;DHT22;12379;49.820;8.648;2022-12-29T02:09:49;11.50;99.90
24250;DHT22;12379;49.820;8.648;2022-12-29T02:12:16;11.50;99.90
24250;DHT22;12379;49.820;8.648;2022-12-29T02:14:43;11.50;99.90
24250;DHT22;12379;49.820;8.648;2022-12-29T02:42:47;11.30;99.90
24250;DHT22;12379;49.820;8.648;2022-12-29T02:45:38;11.30;99.90
24250;DHT22;12379;49.820;8.648;2022-12-29T02:48:23;11.30;99.90
24250;DHT22;12379;49.820;8.648;2022-12-29T02:51:18;11.30;99.90
24250;DHT22;12379;49.820;8.648;2022-12-29T02:53:45;11.20;99.90
24250;DHT22;12379;49.820;8.648;2022-12-29T02:56:30;11.30;99.90
24250;DHT22;12379;49.820;8.648;2022-12-29T02:58:55;11.30;99.90
24250;DHT22;12379;49.820;8.648;2022-12-29T03:07:37;11.30;99.90
24250;DHT22;12379;49.820;8.648;2022-12-29T03:10:18;11.20;99.90
24250;DHT22;12379;49.820;8.648;2022-12-29T03:12:56;11.30;99.90
24250;DHT22;12379;49.820;8.648;2022-12-29T03:18:47;11.40;99.90
24250;DHT22;12379;49.820;8.648;2022-12-29T03:24:29;11.30;99.90
24250;DHT22;12379;49.820;8.648;2022-12-29T03:26:59;11.30;99.90
24250;DHT22;12379;49.820;8.648;2022-12-29T03:29:28;11.20;99.90
24250;DHT22;12379;49.820;8.648;2022-12-29T03:31:55;11.30;99.90
24250;DHT22;12379;49.820;8.648;2022-12-29T03:34:22;11.30;99.90
24250;DHT22;12379;49.820;8.648;2022-12-29T03:37:02;11.40;99.90
24250;DHT22;12379;49.820;8.648;2022-12-29T03:39:28;11.50;99.90
24250;DHT22;12379;49.820;8.648;2022-12-29T03:42:04;11.50;99.90
24250;DHT22;12379;49.820;8.648;2022-12-29T03:44:36;11.50;99.90
24250;DHT22;12379;49.820;8.648;2022-12-29T03:47:03;11.40;99.90
24250;DHT22;12379;49.820;8.648;2022-12-29T03:49:29;11.40;99.90
24250;DHT22;12379;49.820;8.648;2022-12-29T03:51:54;11.30;99.90
24250;DHT22;12379;49.820;8.648;2022-12-29T03:54:20;11.40;99.90
24250;DHT22;12379;49.820;8.648;2022-12-29T03:56:46;11.40;99.90
24250;DHT22;12379;49.820;8.648;2022-12-29T03:59:11;11.40;99.90
24250;DHT22;12379;49.820;8.648;2022-12-29T04:01:37;11.40;99.90
24250;DHT22;12379;49.820;8.648;2022-12-29T04:04:02;11.50;99.90
24250;DHT22;12379;49.820;8.648;2022-12-29T04:06:28;11.50;99.90
24250;DHT22;12379;49.820;8.648;2022-12-29T04:08:53;11.50;99.90
24250;DHT22;12379;49.820;8.648;2022-12-29T04:11:20;11.50;99.90
24250;DHT22;12379;49.820;8.648;2022-12-29T04:13:45;11.50;99.90
24250;DHT22;12379;49.820;8.648;2022-12-29T04:16:11;11.50;99.90
24250;DHT22;12379;49.820;8.648;2022-12-29T04:18:36;11.40;99.90
24250;DHT22;12379;49.820;8.648;2022-12-29T04:21:02;11.40;99.90
24250;DHT22;12379;49.820;8.648;2022-12-29T04:23:30;11.40;99.90
24250;DHT22;12379;49.820;8.648;2022-12-29T04:25:56;11.40;99.90
24250;DHT22;12379;49.820;8.648;2022-12-29T04:28:21;11.40;99.90
24250;DHT22;12379;49.820;8.648;2022-12-29T04:30:47;11.50;99.90
24250;DHT22;12379;49.820;8.648;2022-12-29T04:33:13;11.40;99.90
24250;DHT22;12379;49.820;8.648;2022-12-29T04:35:42;11.40;99.90
24250;DHT22;12379;49.820;8.648;2022-12-29T04:38:08;11.40;99.90
24250;DHT22;12379;49.820;8.648;2022-12-29T04:40:34;11.50;99.90
24250;DHT22;12379;49.820;8.648;2022-12-29T04:43:00;11.50;99.90
24250;DHT22;12379;49.820;8.648;2022-12-29T04:45:25;11.50;99.90
24250;DHT22;12379;49.820;8.648;2022-12-29T04:47:51;11.60;99.90
24250;DHT22;12379;49.820;8.648;2022-12-29T04:50:16;11.50;99.90
24250;DHT22;12379;49.820;8.648;2022-12-29T04:52:42;11.40;99.90
24250;DHT22;12379;49.820;8.648;2022-12-29T04:55:08;11.50;99.90
24250;DHT22;12379;49.820;8.648;2022-12-29T04:57:33;11.60;99.90
24250;DHT22;12379;49.820;8.648;2022-12-29T04:59:59;11.60;99.90
24250;DHT22;12379;49.820;8.648;2022-12-29T05:02:25;11.60;99.90
24250;DHT22;12379;49.820;8.648;2022-12-29T05:04:50;11.60;99.90
24250;DHT22;12379;49.820;8.648;2022-12-29T05:07:16;11.60;99.90
24250;DHT22;12379;49.820;8.648;2022-12-29T05:09:41;11.60;99.90
24250;DHT22;12379;49.820;8.648;2022-12-29T05:12:07;11.50;99.90
24250;DHT22;12379;49.820;8.648;2022-12-29T05:14:33;11.50;99.90
24250;DHT22;12379;49.820;8.648;2022-12-29T05:16:58;11.50;99.90
24250;DHT22;12379;49.820;8.648;2022-12-29T05:19:24;11.50;99.90
24250;DHT22;12379;49.820;8.648;2022-12-29T05:21:49;11.50;99.90
24250;DHT22;12379;49.820;8.648;2022-12-29T05:24:15;11.50;99.90
24250;DHT22;12379;49.820;8.648;2022-12-29T05:26:41;11.50;99.90
24250;DHT22;12379;49.820;8.648;2022-12-29T05:29:07;11.50;99.90
24250;DHT22;12379;49.820;8.648;2022-12-29T05:31:33;11.60;99.90
24250;DHT22;12379;49.820;8.648;2022-12-29T05:34:01;11.50;99.90
24250;DHT22;12379;49.820;8.648;2022-12-29T05:36:27;11.60;99.90
24250;DHT22;12379;49.820;8.648;2022-12-29T05:38:52;11.60;99.90
24250;DHT22;12379;49.820;8.648;2022-12-29T05:41:18;11.60;99.90
24250;DHT22;12379;49.820;8.648;2022-12-29T05:43:44;11.60;99.90
24250;DHT22;12379;49.820;8.648;2022-12-29T05:46:09;11.70;99.90
24250;DHT22;12379;49.820;8.648;2022-12-29T05:48:35;11.70;99.90
24250;DHT22;12379;49.820;8.648;2022-12-29T05:51:00;11.70;99.90
24250;DHT22;12379;49.820;8.648;2022-12-29T05:53:26;11.60;99.90
24250;DHT22;12379;49.820;8.648;2022-12-29T05:55:51;11.60;99.90
24250;DHT22;12379;49.820;8.648;2022-12-29T05:58:17;11.60;99.90
24250;DHT22;12379;49.820;8.648;2022-12-29T06:00:43;11.70;99.90
24250;DHT22;12379;49.820;8.648;2022-12-29T06:03:08;11.60;99.90
24250;DHT22;12379;49.820;8.648;2022-12-29T06:05:34;11.70;99.90
24250;DHT22;12379;49.820;8.648;2022-12-29T06:08:00;11.60;99.90
24250;DHT22;12379;49.820;8.648;2022-12-29T06:10:25;11.60;99.90
24250;DHT22;12379;49.820;8.648;2022-12-29T06:12:51;11.60;99.90
24250;DHT22;12379;49.820;8.648;2022-12-29T06:15:17;11.70;99.90
24250;DHT22;12379;49.820;8.648;2022-12-29T06:17:43;11.70;99.90
24250;DHT22;12379;49.820;8.648;2022-12-29T06:20:09;11.60;99.90
24250;DHT22;12379;49.820;8.648;2022-12-29T06:22:35;11.70;99.90
24250;DHT22;12379;49.820;8.648;2022-12-29T06:25:01;11.70;99.90
24250;DHT22;12379;49.820;8.648;2022-12-29T06:27:27;11.70;99.90
24250;DHT22;12379;49.820;8.648;2022-12-29T06:29:53;11.70;99.90
24250;DHT22;12379;49.820;8.648;2022-12-29T06:32:18;11.70;99.90
24250;DHT22;12379;49.820;8.648;2022-12-29T06:34:44;11.60;99.90
24250;DHT22;12379;49.820;8.648;2022-12-29T06:37:10;11.60;99.90
24250;DHT22;12379;49.820;8.648;2022-12-29T06:39:36;11.60;99.90
24250;DHT22;12379;49.820;8.648;2022-12-29T06:42:01;11.50;99.90
24250;DHT22;12379;49.820;8.648;2022-12-29T06:44:27;11.60;99.90
24250;DHT22;12379;49.820;8.648;2022-12-29T06:46:53;11.60;99.90
24250;DHT22;12379;49.820;8.648;2022-12-29T06:49:18;11.60;99.90
24250;DHT22;12379;49.820;8.648;2022-12-29T06:51:44;11.50;99.90
24250;DHT22;12379;49.820;8.648;2022-12-29T06:54:10;11.50;99.90
24250;DHT22;12379;49.820;8.648;2022-12-29T06:56:35;11.40;99.90
24250;DHT22;12379;49.820;8.648;2022-12-29T06:59:01;11.50;99.90
24250;DHT22;12379;49.820;8.648;2022-12-29T07:01:27;11.50;99.90
24250;DHT22;12379;49.820;8.648;2022-12-29T07:03:52;11.50;99.90
24250;DHT22;12379;49.820;8.648;2022-12-29T07:06:18;11.50;99.90
24250;DHT22;12379;49.820;8.648;2022-12-29T07:08:44;11.60;99.90
24250;DHT22;12379;49.820;8.648;2022-12-29T07:11:10;11.70;99.90
24250;DHT22;12379;49.820;8.648;2022-12-29T07:13:36;11.80;99.90
24250;DHT22;12379;49.820;8.648;2022-12-29T07:16:07;11.70;99.90
24250;DHT22;12379;49.820;8.648;2022-12-29T07:18:32;11.70;99.90
24250;DHT22;12379;49.820;8.648;2022-12-29T07:20:58;11.70;99.90
24250;DHT22;12379;49.820;8.648;2022-12-29T07:23:24;11.70;99.90
24250;DHT22;12379;49.820;8.648;2022-12-29T07:25:49;11.70;99.90
24250;DHT22;12379;49.820;8.648;2022-12-29T07:28:15;11.70;99.90
24250;DHT22;12379;49.820;8.648;2022-12-29T07:30:41;11.70;99.90
24250;DHT22;12379;49.820;8.648;2022-12-29T07:33:06;11.70;99.90
24250;DHT22;12379;49.820;8.648;2022-12-29T07:35:33;11.70;99.90
24250;DHT22;12379;49.820;8.648;2022-12-29T07:37:59;11.60;99.90
24250;DHT22;12379;49.820;8.648;2022-12-29T07:40:39;11.60;99.90
24250;DHT22;12379;49.820;8.648;2022-12-29T07:43:18;11.60;99.90
24250;DHT22;12379;49.820;8.648;2022-12-29T07:45:43;11.50;99.90
24250;DHT22;12379;49.820;8.648;2022-12-29T07:48:09;11.60;99.90
24250;DHT22;12379;49.820;8.648;2022-12-29T07:50:38;11.60;99.90
24250;DHT22;12379;49.820;8.648;2022-12-29T07:53:03;11.70;99.90
24250;DHT22;12379;49.820;8.648;2022-12-29T07:55:29;11.80;99.90
24250;DHT22;12379;49.820;8.648;2022-12-29T08:00:21;11.80;99.90
24250;DHT22;12379;49.820;8.648;2022-12-29T08:02:46;11.80;99.90
24250;DHT22;12379;49.820;8.648;2022-12-29T08:05:12;11.80;99.90
24250;DHT22;12379;49.820;8.648;2022-12-29T08:07:37;11.90;99.90
24250;DHT22;12379;49.820;8.648;2022-12-29T08:10:04;11.90;99.90
24250;DHT22;12379;49.820;8.648;2022-12-29T08:12:29;12.00;99.90
24250;DHT22;12379;49.820;8.648;2022-12-29T08:14:55;12.00;99.90
24250;DHT22;12379;49.820;8.648;2022-12-29T08:17:20;12.00;99.90
24250;DHT22;12379;49.820;8.648;2022-12-29T08:19:46;11.90;99.90
24250;DHT22;12379;49.820;8.648;2022-12-29T08:22:13;12.00;99.90
24250;DHT22;12379;49.820;8.648;2022-12-29T08:24:39;12.00;99.90
24250;DHT22;12379;49.820;8.648;2022-12-29T08:27:04;12.00;99.90
24250;DHT22;12379;49.820;8.648;2022-12-29T08:29:30;12.00;99.90
24250;DHT22;12379;49.820;8.648;2022-12-29T08:31:55;12.10;99.90
24250;DHT22;12379;49.820;8.648;2022-12-29T08:34:21;12.10;99.90
24250;DHT22;12379;49.820;8.648;2022-12-29T08:36:46;12.00;99.90
24250;DHT22;12379;49.820;8.648;2022-12-29T08:39:12;12.10;99.90
24250;DHT22;12379;49.820;8.648;2022-12-29T08:41:38;12.10;99.90
24250;DHT22;12379;49.820;8.648;2022-12-29T08:44:03;12.10;99.90
24250;DHT22;12379;49.820;8.648;2022-12-29T08:46:29;12.10;99.90
24250;DHT22;12379;49.820;8.648;2022-12-29T08:48:54;12.10;99.90
24250;DHT22;12379;49.820;8.648;2022-12-29T08:51:20;12.20;99.90
24250;DHT22;12379;49.820;8.648;2022-12-29T08:53:46;12.20;99.90
24250;DHT22;12379;49.820;8.648;2022-12-29T08:56:11;12.30;99.90
24250;DHT22;12379;49.820;8.648;2022-12-29T08:58:37;12.30;99.90
24250;DHT22;12379;49.820;8.648;2022-12-29T09:01:03;12.30;99.90
24250;DHT22;12379;49.820;8.648;2022-12-29T09:03:29;12.30;99.90
24250;DHT22;12379;49.820;8.648;2022-12-29T09:05:55;12.30;99.90
24250;DHT22;12379;49.820;8.648;2022-12-29T09:08:21;12.20;99.90
24250;DHT22;12379;49.820;8.648;2022-12-29T09:10:47;12.20;99.90
24250;DHT22;12379;49.820;8.648;2022-12-29T09:13:13;12.10;99.90
24250;DHT22;12379;49.820;8.648;2022-12-29T09:15:39;12.10;99.90
24250;DHT22;12379;49.820;8.648;2022-12-29T09:18:06;12.10;99.90
24250;DHT22;12379;49.820;8.648;2022-12-29T09:20:32;12.10;99.90
24250;DHT22;12379;49.820;8.648;2022-12-29T09:22:57;12.00;99.90
24250;DHT22;12379;49.820;8.648;2022-12-29T09:25:24;12.10;99.90
24250;DHT22;12379;49.820;8.648;2022-12-29T09:27:50;12.10;99.90
24250;DHT22;12379;49.820;8.648;2022-12-29T09:30:18;12.20;99.90
24250;DHT22;12379;49.820;8.648;2022-12-29T09:32:44;12.20;99.90
24250;DHT22;12379;49.820;8.648;2022-12-29T09:35:09;12.20;99.90
24250;DHT22;12379;49.820;8.648;2022-12-29T09:37:35;12.30;99.90
24250;DHT22;12379;49.820;8.648;2022-12-29T09:40:01;12.30;99.90
24250;DHT22;12379;49.820;8.648;2022-12-29T09:42:38;12.40;99.90
24250;DHT22;12379;49.820;8.648;2022-12-29T09:45:20;12.50;99.90
24250;DHT22;12379;49.820;8.648;2022-12-29T09:47:50;12.70;99.90
24250;DHT22;12379;49.820;8.648;2022-12-29T09:50:27;12.60;99.90
24250;DHT22;12379;49.820;8.648;2022-12-29T09:53:17;12.70;99.90
24250;DHT22;12379;49.820;8.648;2022-12-29T09:55:53;12.80;99.90
24250;DHT22;12379;49.820;8.648;2022-12-29T09:58:34;12.80;99.90
24250;DHT22;12379;49.820;8.648;2022-12-29T10:01:02;12.90;99.90
24250;DHT22;12379;49.820;8.648;2022-12-29T10:03:52;13.00;99.90
24250;DHT22;12379;49.820;8.648;2022-12-29T10:06:38;12.90;99.90
24250;DHT22;12379;49.820;8.648;2022-12-29T10:09:47;13.00;99.90
24250;DHT22;12379;49.820;8.648;2022-12-29T10:12:35;13.00;99.90
24250;DHT22;12379;49.820;8.648;2022-12-29T10:15:18;13.00;99.90
24250;DHT22;12379;49.820;8.648;2022-12-29T10:18:08;13.20;99.90
24250;DHT22;12379;49.820;8.648;2022-12-29T10:21:05;13.30;99.90
24250;DHT22;12379;49.820;8.648;2022-12-29T10:23:50;13.20;99.90
24250;DHT22;12379;49.820;8.648;2022-12-29T10:26:23;13.30;99.90
24250;DHT22;12379;49.820;8.648;2022-12-29T10:28:53;13.20;99.90
24250;DHT22;12379;49.820;8.648;2022-12-29T10:31:28;13.10;99.90
24250;DHT22;12379;49.820;8.648;2022-12-29T10:33:58;13.00;99.90
24250;DHT22;12379;49.820;8.648;2022-12-29T10:36:35;12.90;99.90
24250;DHT22;12379;49.820;8.648;2022-12-29T10:42:36;12.80;99.90
24250;DHT22;12379;49.820;8.648;2022-12-29T10:45:08;12.80;99.90
24250;DHT22;12379;49.820;8.648;2022-12-29T10:47:50;12.70;99.90
24250;DHT22;12379;49.820;8.648;2022-12-29T10:50:17;12.40;99.90
24250;DHT22;12379;49.820;8.648;2022-12-29T10:52:44;12.20;99.90
24250;DHT22;12379;49.820;8.648;2022-12-29T10:55:18;12.10;99.90
24250;DHT22;12379;49.820;8.648;2022-12-29T10:57:45;12.00;99.90
24250;DHT22;12379;49.820;8.648;2022-12-29T11:00:16;12.00;99.90
24250;DHT22;12379;49.820;8.648;2022-12-29T11:08:01;11.30;99.90
24250;DHT22;12379;49.820;8.648;2022-12-29T11:10:35;11.10;99.90
24250;DHT22;12379;49.820;8.648;2022-12-29T11:13:04;10.90;99.90
24250;DHT22;12379;49.820;8.648;2022-12-29T11:15:44;10.70;99.90
24250;DHT22;12379;49.820;8.648;2022-12-29T11:18:22;10.70;99.90
24250;DHT22;12379;49.820;8.648;2022-12-29T11:20:54;10.70;99.90
24250;DHT22;12379;49.820;8.648;2022-12-29T11:23:39;10.70;99.90
24250;DHT22;12379;49.820;8.648;2022-12-29T11:28:30;10.60;99.90
24250;DHT22;12379;49.820;8.648;2022-12-29T11:31:01;10.60;99.90
24250;DHT22;12379;49.820;8.648;2022-12-29T11:33:32;10.70;99.90
24250;DHT22;12379;49.820;8.648;2022-12-29T11:36:13;10.80;99.90
24250;DHT22;12379;49.820;8.648;2022-12-29T11:38:42;10.90;99.90
24250;DHT22;12379;49.820;8.648;2022-12-29T11:41:12;11.00;99.90
24250;DHT22;12379;49.820;8.648;2022-12-29T11:43:41;11.00;99.90
24250;DHT22;12379;49.820;8.648;2022-12-29T11:46:16;11.10;99.90
24250;DHT22;12379;49.820;8.648;2022-12-29T11:48:43;11.10;99.90
24250;DHT22;12379;49.820;8.648;2022-12-29T11:51:23;11.20;99.90
24250;DHT22;12379;49.820;8.648;2022-12-29T11:53:55;11.40;99.90
24250;DHT22;12379;49.820;8.648;2022-12-29T11:56:35;11.60;99.90
24250;DHT22;12379;49.820;8.648;2022-12-29T12:01:54;11.30;99.90
24250;DHT22;12379;49.820;8.648;2022-12-29T12:04:23;11.30;99.90
24250;DHT22;12379;49.820;8.648;2022-12-29T12:09:50;11.40;99.90
24250;DHT22;12379;49.820;8.648;2022-12-29T12:12:39;11.40;99.90
24250;DHT22;12379;49.820;8.648;2022-12-29T12:15:16;11.40;99.90
24250;DHT22;12379;49.820;8.648;2022-12-29T12:17:56;11.50;99.90
24250;DHT22;12379;49.820;8.648;2022-12-29T12:20:34;11.60;99.90
24250;DHT22;12379;49.820;8.648;2022-12-29T12:23:07;11.60;99.90
24250;DHT22;12379;49.820;8.648;2022-12-29T12:25:39;11.60;99.90
24250;DHT22;12379;49.820;8.648;2022-12-29T12:31:01;11.80;99.90
24250;DHT22;12379;49.820;8.648;2022-12-29T12:33:41;11.80;99.90
24250;DHT22;12379;49.820;8.648;2022-12-29T12:36:19;11.70;99.90
24250;DHT22;12379;49.820;8.648;2022-12-29T12:44:29;11.80;99.90
24250;DHT22;12379;49.820;8.648;2022-12-29T12:52:54;11.80;99.90
24250;DHT22;12379;49.820;8.648;2022-12-29T13:01:33;12.00;99.90
24250;DHT22;12379;49.820;8.648;2022-12-29T13:12:40;11.70;99.90
24250;DHT22;12379;49.820;8.648;2022-12-29T13:26:28;11.90;99.90
24250;DHT22;12379;49.820;8.648;2022-12-29T13:29:18;12.00;99.90
24250;DHT22;12379;49.820;8.648;2022-12-29T13:34:53;12.00;99.90
24250;DHT22;12379;49.820;8.648;2022-12-29T13:37:27;12.00;99.90
24250;DHT22;12379;49.820;8.648;2022-12-29T13:40:02;12.10;99.90
24250;DHT22;12379;49.820;8.648;2022-12-29T13:42:29;12.10;99.90
24250;DHT22;12379;49.820;8.648;2022-12-29T13:45:00;12.00;99.90
24250;DHT22;12379;49.820;8.648;2022-12-29T13:47:39;11.90;99.90
24250;DHT22;12379;49.820;8.648;2022-12-29T13:50:15;11.90;99.90
24250;DHT22;12379;49.820;8.648;2022-12-29T13:52:48;11.90;99.90
24250;DHT22;12379;49.820;8.648;2022-12-29T14:01:13;12.00;99.90
24250;DHT22;12379;49.820;8.648;2022-12-29T14:03:55;11.90;99.90
24250;DHT22;12379;49.820;8.648;2022-12-29T14:06:31;11.90;99.90
24250;DHT22;12379;49.820;8.648;2022-12-29T14:09:00;12.00;99.90
24250;DHT22;12379;49.820;8.648;2022-12-29T14:11:38;11.90;99.90
24250;DHT22;12379;49.820;8.648;2022-12-29T14:14:34;11.90;99.90
24250;DHT22;12379;49.820;8.648;2022-12-29T14:17:10;11.90;99.90
24250;DHT22;12379;49.820;8.648;2022-12-29T14:19:39;11.90;99.90
24250;DHT22;12379;49.820;8.648;2022-12-29T14:22:06;11.90;99.90
24250;DHT22;12379;49.820;8.648;2022-12-29T14:26:58;11.90;99.90
24250;DHT22;12379;49.820;8.648;2022-12-29T14:31:50;11.90;99.90
24250;DHT22;12379;49.820;8.648;2022-12-29T14:36:59;11.80;99.90
24250;DHT22;12379;49.820;8.648;2022-12-29T14:39:41;11.80;99.90
24250;DHT22;12379;49.820;8.648;2022-12-29T14:42:20;11.90;99.90
24250;DHT22;12379;49.820;8.648;2022-12-29T14:45:00;11.70;99.90
24250;DHT22;12379;49.820;8.648;2022-12-29T14:47:36;11.70;99.90
24250;DHT22;12379;49.820;8.648;2022-12-29T14:50:07;11.70;99.90
24250;DHT22;12379;49.820;8.648;2022-12-29T14:52:50;11.60;99.90
24250;DHT22;12379;49.820;8.648;2022-12-29T14:57:47;11.60;99.90
24250;DHT22;12379;49.820;8.648;2022-12-29T15:00:24;11.60;99.90
24250;DHT22;12379;49.820;8.648;2022-12-29T15:03:20;11.60;99.90
24250;DHT22;12379;49.820;8.648;2022-12-29T15:05:53;11.40;99.90
24250;DHT22;12379;49.820;8.648;2022-12-29T15:08:25;11.50;99.90
24250;DHT22;12379;49.820;8.648;2022-12-29T15:10:58;11.50;99.90
24250;DHT22;12379;49.820;8.648;2022-12-29T15:13:37;11.50;99.90
24250;DHT22;12379;49.820;8.648;2022-12-29T15:16:04;11.50;99.90
24250;DHT22;12379;49.820;8.648;2022-12-29T15:18:31;11.30;99.90
24250;DHT22;12379;49.820;8.648;2022-12-29T15:21:02;11.20;99.90
24250;DHT22;12379;49.820;8.648;2022-12-29T15:23:30;11.20;99.90
24250;DHT22;12379;49.820;8.648;2022-12-29T15:26:07;11.10;99.90
24250;DHT22;12379;49.820;8.648;2022-12-29T15:28:39;10.90;99.90
24250;DHT22;12379;49.820;8.648;2022-12-29T15:31:10;10.90;99.90
24250;DHT22;12379;49.820;8.648;2022-12-29T15:33:40;10.80;99.90
24250;DHT22;12379;49.820;8.648;2022-12-29T15:36:12;10.90;99.90
24250;DHT22;12379;49.820;8.648;2022-12-29T15:38:38;10.90;99.90
24250;DHT22;12379;49.820;8.648;2022-12-29T15:41:25;10.80;99.90
24250;DHT22;12379;49.820;8.648;2022-12-29T15:44:17;10.60;99.90
24250;DHT22;12379;49.820;8.648;2022-12-29T15:46:45;10.50;99.90
24250;DHT22;12379;49.820;8.648;2022-12-29T15:49:14;10.50;99.90
24250;DHT22;12379;49.820;8.648;2022-12-29T15:51:40;10.40;99.90
24250;DHT22;12379;49.820;8.648;2022-12-29T15:54:14;10.40;99.90
24250;DHT22;12379;49.820;8.648;2022-12-29T15:56:41;10.50;99.90
24250;DHT22;12379;49.820;8.648;2022-12-29T15:59:26;10.50;99.90
24250;DHT22;12379;49.820;8.648;2022-12-29T16:01:53;10.50;99.90
24250;DHT22;12379;49.820;8.648;2022-12-29T16:04:19;10.50;99.90
24250;DHT22;12379;49.820;8.648;2022-12-29T16:06:58;10.50;99.90
24250;DHT22;12379;49.820;8.648;2022-12-29T16:09:32;10.50;99.90
24250;DHT22;12379;49.820;8.648;2022-12-29T16:12:13;10.40;99.90
24250;DHT22;12379;49.820;8.648;2022-12-29T16:14:42;10.30;99.90
24250;DHT22;12379;49.820;8.648;2022-12-29T16:17:13;10.30;99.90
24250;DHT22;12379;49.820;8.648;2022-12-29T16:19:41;10.40;99.90
24250;DHT22;12379;49.820;8.648;2022-12-29T16:22:22;10.30;99.90
24250;DHT22;12379;49.820;8.648;2022-12-29T16:24:50;10.20;99.90
24250;DHT22;12379;49.820;8.648;2022-12-29T16:27:22;10.30;99.90
24250;DHT22;12379;49.820;8.648;2022-12-29T16:29:53;10.30;99.90
24250;DHT22;12379;49.820;8.648;2022-12-29T16:32:28;10.30;99.90
24250;DHT22;12379;49.820;8.648;2022-12-29T16:35:17;10.20;99.90
24250;DHT22;12379;49.820;8.648;2022-12-29T16:37:43;10.20;99.90
24250;DHT22;12379;49.820;8.648;2022-12-29T16:40:23;10.20;99.90
24250;DHT22;12379;49.820;8.648;2022-12-29T16:43:01;10.30;99.90
24250;DHT22;12379;49.820;8.648;2022-12-29T16:50:42;10.40;99.90
24250;DHT22;12379;49.820;8.648;2022-12-29T16:53:21;10.30;99.90
24250;DHT22;12379;49.820;8.648;2022-12-29T16:55:50;10.30;99.90
24250;DHT22;12379;49.820;8.648;2022-12-29T16:58:24;10.40;99.90
24250;DHT22;12379;49.820;8.648;2022-12-29T17:01:10;10.30;99.90
24250;DHT22;12379;49.820;8.648;2022-12-29T17:03:43;10.30;99.90
24250;DHT22;12379;49.820;8.648;2022-12-29T17:06:18;10.30;99.90
24250;DHT22;12379;49.820;8.648;2022-12-29T17:08:48;10.30;99.90
24250;DHT22;12379;49.820;8.648;2022-12-29T17:11:29;10.30;99.90
24250;DHT22;12379;49.820;8.648;2022-12-29T17:17:09;10.30;99.90
24250;DHT22;12379;49.820;8.648;2022-12-29T17:19:37;10.20;99.90
24250;DHT22;12379;49.820;8.648;2022-12-29T17:22:10;10.20;99.90
24250;DHT22;12379;49.820;8.648;2022-12-29T17:24:37;10.20;99.90
24250;DHT22;12379;49.820;8.648;2022-12-29T17:27:03;10.10;99.90
24250;DHT22;12379;49.820;8.648;2022-12-29T17:29:32;10.10;99.90
24250;DHT22;12379;49.820;8.648;2022-12-29T17:31:59;10.10;99.90
24250;DHT22;12379;49.820;8.648;2022-12-29T17:34:26;10.10;99.90
24250;DHT22;12379;49.820;8.648;2022-12-29T17:36:51;10.10;99.90
24250;DHT22;12379;49.820;8.648;2022-12-29T17:39:17;10.10;99.90
24250;DHT22;12379;49.820;8.648;2022-12-29T17:41:43;10.10;99.90
24250;DHT22;12379;49.820;8.648;2022-12-29T17:44:17;10.10;99.90
24250;DHT22;12379;49.820;8.648;2022-12-29T17:46:44;10.10;99.90
24250;DHT22;12379;49.820;8.648;2022-12-29T17:49:12;10.10;99.90
24250;DHT22;12379;49.820;8.648;2022-12-29T17:51:39;10.10;99.90
24250;DHT22;12379;49.820;8.648;2022-12-29T17:54:05;10.00;99.90
24250;DHT22;12379;49.820;8.648;2022-12-29T17:56:33;10.00;99.90
24250;DHT22;12379;49.820;8.648;2022-12-29T17:58:58;10.10;99.90
24250;DHT22;12379;49.820;8.648;2022-12-29T18:01:24;10.00;99.90